createdAt,value
2023-03-06T00:01:25.179Z,76.15
2023-03-06T00:02:57.793Z,76.06
2023-03-06T00:04:29.383Z,76.06
2023-03-06T00:06:01.078Z,76.21
2023-03-06T00:07:32.728Z,76.79
2023-03-06T00:09:04.661Z,76.67
2023-03-06T00:10:36.882Z,76.79
2023-03-06T00:12:08.784Z,76.82
2023-03-06T00:13:40.449Z,77.34
2023-03-06T00:15:13.524Z,77.15
2023-03-06T00:16:45.088Z,77.12
2023-03-06T00:18:16.990Z,76.82
2023-03-06T00:19:48.614Z,77.05
2023-03-06T00:21:20.209Z,76.78
2023-03-06T00:22:51.904Z,76.99
2023-03-06T00:24:23.588Z,77.29
2023-03-06T00:25:55.245Z,77.38
2023-03-06T00:27:26.806Z,77.56
2023-03-06T00:28:58.571Z,77.24
2023-03-06T00:30:30.816Z,77.36
2023-03-06T00:32:02.799Z,77.48
2023-03-06T00:33:34.456Z,77.86
2023-03-06T00:35:06.510Z,78.42
2023-03-06T00:36:38.077Z,78.30
2023-03-06T00:38:11.927Z,78.27
2023-03-06T00:39:43.611Z,78.52
2023-03-06T00:41:15.228Z,78.48
2023-03-06T00:42:47.524Z,78.46
2023-03-06T00:44:19.097Z,78.34
2023-03-06T00:45:50.754Z,78.15
2023-03-06T00:47:22.442Z,78.05
2023-03-06T00:48:54.070Z,78.44
2023-03-06T00:50:26.040Z,78.21
2023-03-06T00:51:57.717Z,78.44
2023-03-06T00:53:29.379Z,78.25
2023-03-06T00:55:00.910Z,77.98
2023-03-06T00:56:32.605Z,78.24
2023-03-06T00:58:04.174Z,77.67
2023-03-06T00:59:35.909Z,77.95
2023-03-06T01:01:07.898Z,78.26
2023-03-06T01:02:39.842Z,78.71
2023-03-06T01:04:12.107Z,78.41
2023-03-06T01:05:43.665Z,78.46
2023-03-06T01:07:15.270Z,78.75
2023-03-06T01:08:46.887Z,78.43
2023-03-06T01:10:18.507Z,78.64
2023-03-06T01:11:50.327Z,78.53
2023-03-06T01:13:22.001Z,78.35
2023-03-06T01:14:56.100Z,78.07
2023-03-06T01:16:27.970Z,78.65
2023-03-06T01:17:59.563Z,77.99
2023-03-06T01:19:31.118Z,78.14
2023-03-06T01:21:04.023Z,78.34
2023-03-06T01:22:35.601Z,78.24
2023-03-06T01:24:07.793Z,78.27
2023-03-06T01:25:39.406Z,78.54
2023-03-06T01:27:11.093Z,78.48
2023-03-06T01:28:42.803Z,77.71
2023-03-06T01:30:14.555Z,78.01
2023-03-06T01:31:46.356Z,77.91
2023-03-06T01:33:18.408Z,77.99
2023-03-06T01:34:50.197Z,78.10
2023-03-06T01:36:21.770Z,77.94
2023-03-06T01:37:53.397Z,77.94
2023-03-06T01:39:25.118Z,77.90
2023-03-06T01:40:56.921Z,78.04
2023-03-06T01:42:32.175Z,78.14
2023-03-06T01:44:04.225Z,78.06
2023-03-06T01:45:35.786Z,78.48
2023-03-06T01:47:07.499Z,77.74
2023-03-06T01:48:39.922Z,77.91
2023-03-06T01:50:12.680Z,77.49
2023-03-06T01:52:00.009Z,77.54
2023-03-06T01:53:32.184Z,78.22
2023-03-06T01:55:08.712Z,77.85
2023-03-06T01:56:44.900Z,78.41
2023-03-06T01:58:18.656Z,78.42
2023-03-06T01:59:56.288Z,78.43
2023-03-06T02:01:30.991Z,78.16
2023-03-06T02:03:05.711Z,78.15
2023-03-06T02:04:39.808Z,78.13
2023-03-06T02:06:11.983Z,77.96
2023-03-06T02:07:44.905Z,78.13
2023-03-06T02:09:18.547Z,78.30
2023-03-06T02:11:16.012Z,78.40
2023-03-06T02:12:49.189Z,78.35
2023-03-06T02:14:20.825Z,78.46
2023-03-06T02:15:52.483Z,78.21
2023-03-06T02:17:25.023Z,78.62
2023-03-06T02:19:00.673Z,78.57
2023-03-06T02:20:43.401Z,78.34
2023-03-06T02:22:15.004Z,78.64
2023-03-06T02:24:40.986Z,78.70
2023-03-06T02:26:13.768Z,78.43
2023-03-06T02:27:45.370Z,78.50
2023-03-06T02:29:26.369Z,78.96
2023-03-06T02:30:58.567Z,79.00
2023-03-06T02:32:30.259Z,79.26
2023-03-06T02:34:04.537Z,78.78
2023-03-06T02:35:39.196Z,78.95
2023-03-06T02:37:11.327Z,78.86
2023-03-06T02:38:50.197Z,79.11
2023-03-06T02:40:24.435Z,79.15
2023-03-06T02:41:56.075Z,79.01
2023-03-06T02:43:34.416Z,79.22
2023-03-06T02:45:10.671Z,79.23
2023-03-06T02:46:42.382Z,78.66
2023-03-06T02:48:16.755Z,78.56
2023-03-06T02:49:48.363Z,78.84
2023-03-06T02:51:20.046Z,78.71
2023-03-06T02:52:51.742Z,78.83
2023-03-06T02:54:23.414Z,78.75
2023-03-06T02:55:55.443Z,78.24
2023-03-06T02:57:27.196Z,78.17
2023-03-06T02:58:59.216Z,78.21
2023-03-06T03:00:31.493Z,78.51
2023-03-06T03:02:05.661Z,78.57
2023-03-06T03:03:38.654Z,77.92
2023-03-06T03:05:10.451Z,78.37
2023-03-06T03:06:46.077Z,78.33
2023-03-06T03:08:18.486Z,78.70
2023-03-06T03:09:50.539Z,78.32
2023-03-06T03:11:22.204Z,77.97
2023-03-06T03:12:53.955Z,77.94
2023-03-06T03:14:25.826Z,77.98
2023-03-06T03:16:03.159Z,78.17
2023-03-06T03:17:39.944Z,78.01
2023-03-06T03:19:11.609Z,77.88
2023-03-06T03:20:43.681Z,78.12
2023-03-06T03:22:15.529Z,78.06
2023-03-06T03:23:48.757Z,77.75
2023-03-06T03:25:21.570Z,78.08
2023-03-06T03:26:53.452Z,78.36
2023-03-06T03:28:27.181Z,78.30
2023-03-06T03:29:59.933Z,78.52
2023-03-06T03:31:32.922Z,78.22
2023-03-06T03:33:06.077Z,77.94
2023-03-06T03:34:37.792Z,77.77
2023-03-06T03:36:10.508Z,77.79
2023-03-06T03:37:45.932Z,78.00
2023-03-06T03:39:17.921Z,77.81
2023-03-06T03:40:49.672Z,77.36
2023-03-06T03:42:21.564Z,77.66
2023-03-06T03:43:54.323Z,77.17
2023-03-06T03:45:25.957Z,77.41
2023-03-06T03:46:57.601Z,77.57
2023-03-06T03:48:29.773Z,77.71
2023-03-06T03:50:02.021Z,77.32
2023-03-06T03:51:34.277Z,77.14
2023-03-06T03:53:05.868Z,77.46
2023-03-06T03:54:38.206Z,77.26
2023-03-06T03:56:10.642Z,77.00
2023-03-06T03:57:49.465Z,77.42
2023-03-06T03:59:21.192Z,77.89
2023-03-06T04:01:15.399Z,77.37
2023-03-06T04:02:47.335Z,77.73
2023-03-06T04:04:29.940Z,77.34
2023-03-06T04:06:01.727Z,77.09
2023-03-06T04:07:33.375Z,77.07
2023-03-06T04:09:05.696Z,77.29
2023-03-06T04:10:39.429Z,77.26
2023-03-06T04:12:12.554Z,76.65
2023-03-06T04:13:44.136Z,77.08
2023-03-06T04:15:15.825Z,77.21
2023-03-06T04:16:47.498Z,77.03
2023-03-06T04:18:20.821Z,76.86
2023-03-06T04:19:54.062Z,76.83
2023-03-06T04:21:26.037Z,76.52
2023-03-06T04:22:57.851Z,76.63
2023-03-06T04:24:29.544Z,77.12
2023-03-06T04:26:01.652Z,77.29
2023-03-06T04:27:33.878Z,77.21
2023-03-06T04:29:05.669Z,77.25
2023-03-06T04:30:37.789Z,76.98
2023-03-06T04:32:09.937Z,77.04
2023-03-06T04:33:41.735Z,76.94
2023-03-06T04:35:13.966Z,76.24
2023-03-06T04:36:57.559Z,76.99
2023-03-06T04:38:29.150Z,77.01
2023-03-06T04:40:00.757Z,76.81
2023-03-06T04:41:32.830Z,76.78
2023-03-06T04:43:05.245Z,76.37
2023-03-06T04:44:36.893Z,76.78
2023-03-06T04:46:10.977Z,76.65
2023-03-06T04:47:42.647Z,76.39
2023-03-06T04:49:14.294Z,76.41
2023-03-06T04:50:46.055Z,76.59
2023-03-06T04:52:17.614Z,76.64
2023-03-06T04:53:49.228Z,77.51
2023-03-06T04:55:21.025Z,77.12
2023-03-06T04:56:52.606Z,77.64
2023-03-06T04:58:24.308Z,77.37
2023-03-06T04:59:55.909Z,77.33
2023-03-06T05:01:27.810Z,77.15
2023-03-06T05:03:01.160Z,77.68
2023-03-06T05:04:32.775Z,77.85
2023-03-06T05:06:04.770Z,77.50
2023-03-06T05:07:36.532Z,77.55
2023-03-06T05:09:08.210Z,77.66
2023-03-06T05:10:39.847Z,77.97
2023-03-06T05:12:11.463Z,77.59
2023-03-06T05:13:43.181Z,77.95
2023-03-06T05:15:16.427Z,77.40
2023-03-06T05:16:48.124Z,77.75
2023-03-06T05:18:20.602Z,77.62
2023-03-06T05:19:52.283Z,77.85
2023-03-06T05:21:23.915Z,77.47
2023-03-06T05:22:55.539Z,77.55
2023-03-06T05:24:27.204Z,77.36
2023-03-06T05:25:58.954Z,77.14
2023-03-06T05:27:31.029Z,76.84
2023-03-06T05:29:02.696Z,77.03
2023-03-06T05:30:34.636Z,77.26
2023-03-06T05:32:07.093Z,77.23
2023-03-06T05:33:38.774Z,77.61
2023-03-06T05:35:17.422Z,77.18
2023-03-06T05:36:49.043Z,77.16
2023-03-06T05:38:20.651Z,77.48
2023-03-06T05:39:52.236Z,77.35
2023-03-06T05:41:23.918Z,77.28
2023-03-06T05:42:55.954Z,77.60
2023-03-06T05:44:35.158Z,77.61
2023-03-06T05:46:07.547Z,78.16
2023-03-06T05:47:39.148Z,77.65
2023-03-06T05:49:10.859Z,76.99
2023-03-06T05:50:42.494Z,77.79
2023-03-06T05:52:14.950Z,77.12
2023-03-06T05:53:46.803Z,77.19
2023-03-06T05:55:21.113Z,77.55
2023-03-06T05:56:52.710Z,77.59
2023-03-06T05:58:24.354Z,77.54
2023-03-06T05:59:55.963Z,78.00
2023-03-06T06:01:28.551Z,77.68
2023-03-06T06:03:01.871Z,77.83
2023-03-06T06:04:33.712Z,77.84
2023-03-06T06:06:06.935Z,77.89
2023-03-06T06:07:38.801Z,78.30
2023-03-06T06:09:13.493Z,78.15
2023-03-06T06:10:45.435Z,78.09
2023-03-06T06:12:17.057Z,78.36
2023-03-06T06:13:49.583Z,78.69
2023-03-06T06:15:21.184Z,78.01
2023-03-06T06:16:53.390Z,78.19
2023-03-06T06:18:25.144Z,77.84
2023-03-06T06:19:56.708Z,78.33
2023-03-06T06:21:28.228Z,78.37
2023-03-06T06:23:00.148Z,78.70
2023-03-06T06:24:32.207Z,78.44
2023-03-06T06:26:06.950Z,78.44
2023-03-06T06:27:38.558Z,78.38
2023-03-06T06:29:11.760Z,78.30
2023-03-06T06:30:43.361Z,78.30
2023-03-06T06:32:14.964Z,78.42
2023-03-06T06:33:46.567Z,78.59
2023-03-06T06:35:18.366Z,77.95
2023-03-06T06:36:53.302Z,76.80
2023-03-06T06:38:25.416Z,77.21
2023-03-06T06:39:57.184Z,78.08
2023-03-06T06:41:54.973Z,77.43
2023-03-06T06:43:21.750Z,77.86
2023-03-06T06:44:53.538Z,78.46
2023-03-06T06:47:09.594Z,77.20
2023-03-06T06:48:18.065Z,77.32
2023-03-06T06:49:51.214Z,77.19
2023-03-06T06:51:23.074Z,77.13
2023-03-06T06:52:54.721Z,77.01
2023-03-06T06:54:29.197Z,77.14
2023-03-06T06:56:00.850Z,77.62
2023-03-06T06:57:32.430Z,77.23
2023-03-06T06:59:16.148Z,77.38
2023-03-06T07:00:48.911Z,77.33
2023-03-06T07:02:20.750Z,77.05
2023-03-06T07:03:52.686Z,76.28
2023-03-06T07:05:24.358Z,76.33
2023-03-06T07:06:56.894Z,76.32
2023-03-06T07:08:28.483Z,76.60
2023-03-06T07:10:00.294Z,76.92
2023-03-06T07:11:31.917Z,76.34
2023-03-06T07:13:03.660Z,76.54
2023-03-06T07:14:35.921Z,76.25
2023-03-06T07:16:07.821Z,76.33
2023-03-06T07:17:39.482Z,76.50
2023-03-06T07:19:11.178Z,76.39
2023-03-06T07:20:42.883Z,76.66
2023-03-06T07:22:14.499Z,75.32
2023-03-06T07:23:46.151Z,75.61
2023-03-06T07:25:17.911Z,75.59
2023-03-06T07:26:49.553Z,75.37
2023-03-06T07:28:21.817Z,74.84
2023-03-06T07:29:53.431Z,74.89
2023-03-06T07:31:27.458Z,74.65
2023-03-06T07:33:00.144Z,74.42
2023-03-06T07:34:31.755Z,74.43
2023-03-06T07:36:03.707Z,74.73
2023-03-06T07:37:35.380Z,74.60
2023-03-06T07:39:10.265Z,74.01
2023-03-06T07:40:42.325Z,73.74
2023-03-06T07:42:14.452Z,73.19
2023-03-06T07:43:52.854Z,72.91
2023-03-06T07:45:24.906Z,72.69
2023-03-06T07:46:56.757Z,72.51
2023-03-06T07:48:28.585Z,71.83
2023-03-06T07:50:03.172Z,71.42
2023-03-06T07:51:34.835Z,70.38
2023-03-06T07:53:06.372Z,70.71
2023-03-06T07:54:38.026Z,69.14
2023-03-06T07:56:11.807Z,69.72
2023-03-06T07:57:43.506Z,69.66
2023-03-06T07:59:15.096Z,69.60
2023-03-06T08:00:46.727Z,69.03
2023-03-06T08:02:18.752Z,68.98
2023-03-06T08:03:50.631Z,68.91
2023-03-06T08:05:22.395Z,68.46
2023-03-06T08:06:57.455Z,68.14
2023-03-06T08:08:29.088Z,68.34
2023-03-06T08:10:01.133Z,67.59
2023-03-06T08:11:33.358Z,68.23
2023-03-06T08:13:05.084Z,68.46
2023-03-06T08:14:37.101Z,68.34
2023-03-06T08:16:09.878Z,68.36
2023-03-06T08:17:41.547Z,68.77
2023-03-06T08:19:13.168Z,67.37
2023-03-06T08:20:44.748Z,67.50
2023-03-06T08:22:16.423Z,67.59
2023-03-06T08:23:48.596Z,67.06
2023-03-06T08:25:20.233Z,67.40
2023-03-06T08:26:51.849Z,67.45
2023-03-06T08:28:23.454Z,65.87
2023-03-06T08:29:55.127Z,66.32
2023-03-06T08:31:29.976Z,65.26
2023-03-06T08:33:02.156Z,64.35
2023-03-06T08:34:33.905Z,64.77
2023-03-06T08:36:06.073Z,64.57
2023-03-06T08:37:37.726Z,64.67
2023-03-06T08:39:09.673Z,63.61
2023-03-06T08:40:41.509Z,64.07
2023-03-06T08:42:14.464Z,64.94
2023-03-06T08:43:46.144Z,64.32
2023-03-06T08:45:17.901Z,64.68
2023-03-06T08:46:49.566Z,64.66
2023-03-06T08:48:21.352Z,64.68
2023-03-06T08:49:52.983Z,64.51
2023-03-06T08:51:25.075Z,63.85
2023-03-06T08:52:56.757Z,63.78
2023-03-06T08:54:28.408Z,63.92
2023-03-06T08:56:00.075Z,64.35
2023-03-06T08:57:31.907Z,64.61
2023-03-06T08:59:05.523Z,65.13
2023-03-06T09:00:37.817Z,64.53
2023-03-06T09:02:13.016Z,64.95
2023-03-06T09:03:45.215Z,65.02
2023-03-06T09:05:17.104Z,65.29
2023-03-06T09:06:48.729Z,66.25
2023-03-06T09:08:20.457Z,66.63
2023-03-06T09:09:56.040Z,66.62
2023-03-06T09:11:28.537Z,66.18
2023-03-06T09:13:00.353Z,66.06
2023-03-06T09:14:32.279Z,66.31
2023-03-06T09:16:04.090Z,66.97
2023-03-06T09:17:35.791Z,66.97
2023-03-06T09:19:07.591Z,65.93
2023-03-06T09:20:39.270Z,66.34
2023-03-06T09:22:10.907Z,65.95
2023-03-06T09:23:42.625Z,65.51
2023-03-06T09:25:17.536Z,65.30
2023-03-06T09:26:51.406Z,65.42
2023-03-06T09:28:23.884Z,65.71
2023-03-06T09:29:56.640Z,65.39
2023-03-06T09:31:28.365Z,65.05
2023-03-06T09:33:00.106Z,64.30
2023-03-06T09:34:31.850Z,64.52
2023-03-06T09:36:04.377Z,64.33
2023-03-06T09:37:36.051Z,64.56
2023-03-06T09:39:09.068Z,64.24
2023-03-06T09:41:00.051Z,63.63
2023-03-06T09:42:34.378Z,64.33
2023-03-06T09:44:18.449Z,63.42
2023-03-06T09:45:50.296Z,63.84
2023-03-06T09:47:43.594Z,62.31
2023-03-06T09:49:33.982Z,61.68
2023-03-06T09:51:15.150Z,62.16
2023-03-06T09:52:58.953Z,62.18
2023-03-06T09:54:40.921Z,61.75
2023-03-06T09:56:18.454Z,61.35
2023-03-06T09:58:19.480Z,62.02
2023-03-06T09:59:55.488Z,61.75
2023-03-06T10:01:31.889Z,61.80
2023-03-06T10:03:09.849Z,60.80
2023-03-06T10:04:46.161Z,59.57
2023-03-06T10:06:24.076Z,55.38
2023-03-06T10:08:12.292Z,48.83
2023-03-06T10:09:50.701Z,40.54
2023-03-06T10:11:37.296Z,36.21
2023-03-06T10:13:20.990Z,36.01
2023-03-06T10:14:55.390Z,40.85
2023-03-06T10:16:27.010Z,44.67
2023-03-06T10:17:58.726Z,45.99
2023-03-06T10:19:36.852Z,47.29
2023-03-06T10:21:29.675Z,49.07
2023-03-06T10:23:20.766Z,49.18
2023-03-06T10:25:16.861Z,48.75
2023-03-06T10:26:59.793Z,50.68
2023-03-06T10:28:46.855Z,50.51
2023-03-06T10:30:24.206Z,51.78
2023-03-06T10:32:10.179Z,51.83
2023-03-06T10:33:52.809Z,52.71
2023-03-06T10:35:30.805Z,53.36
2023-03-06T10:37:19.613Z,53.27
2023-03-06T10:38:51.127Z,53.02
2023-03-06T10:40:31.027Z,52.57
2023-03-06T10:42:02.590Z,54.16
2023-03-06T10:43:36.605Z,55.01
2023-03-06T10:45:15.428Z,56.43
2023-03-06T10:46:49.793Z,57.49
2023-03-06T10:48:26.946Z,57.41
2023-03-06T10:50:01.664Z,58.39
2023-03-06T10:51:35.569Z,58.17
2023-03-06T10:53:18.948Z,58.06
2023-03-06T10:54:50.505Z,60.37
2023-03-06T10:56:28.694Z,59.24
2023-03-06T10:58:35.565Z,58.48
2023-03-06T11:00:31.030Z,58.76
2023-03-06T11:02:29.025Z,57.67
2023-03-06T11:04:30.091Z,57.57
2023-03-06T11:06:11.534Z,57.73
2023-03-06T11:07:55.992Z,57.52
2023-03-06T11:09:27.622Z,57.92
2023-03-06T11:11:03.184Z,57.47
2023-03-06T11:12:36.168Z,56.00
2023-03-06T11:14:15.979Z,57.08
2023-03-06T11:16:01.755Z,56.93
2023-03-06T11:17:36.118Z,56.17
2023-03-06T11:19:20.189Z,55.90
2023-03-06T11:20:54.497Z,56.28
2023-03-06T11:22:26.175Z,56.31
2023-03-06T11:24:05.748Z,55.81
2023-03-06T11:25:42.980Z,55.50
2023-03-06T11:27:34.402Z,54.90
2023-03-06T11:29:10.588Z,55.71
2023-03-06T11:30:47.143Z,55.11
2023-03-06T11:32:26.750Z,54.45
2023-03-06T11:34:16.302Z,55.14
2023-03-06T11:35:57.898Z,55.91
2023-03-06T11:37:32.416Z,56.22
2023-03-06T11:39:25.478Z,56.28
2023-03-06T11:41:00.038Z,57.12
2023-03-06T11:42:39.247Z,56.85
2023-03-06T11:44:24.644Z,57.03
2023-03-06T11:45:56.934Z,56.88
2023-03-06T11:47:46.725Z,56.25
2023-03-06T11:49:33.146Z,56.32
2023-03-06T11:51:34.139Z,55.53
2023-03-06T11:53:10.624Z,55.22
2023-03-06T11:54:42.427Z,54.32
2023-03-06T11:56:20.314Z,55.16
2023-03-06T11:58:06.040Z,55.55
2023-03-06T11:59:50.899Z,55.09
2023-03-06T12:01:44.799Z,54.83
2023-03-06T12:03:34.880Z,54.61
2023-03-06T12:05:28.007Z,54.47
2023-03-06T12:07:04.613Z,54.64
2023-03-06T12:08:51.667Z,55.08
2023-03-06T12:10:34.997Z,54.71
2023-03-06T12:12:29.665Z,53.91
2023-03-06T12:14:19.936Z,52.96
2023-03-06T12:16:16.272Z,51.98
2023-03-06T12:17:59.145Z,52.08
2023-03-06T12:19:50.736Z,50.75
2023-03-06T12:21:40.764Z,49.21
2023-03-06T12:23:40.954Z,50.58
2023-03-06T12:25:35.154Z,50.16
2023-03-06T12:27:19.872Z,48.18
2023-03-06T12:29:22.020Z,47.87
2023-03-06T12:31:09.624Z,48.20
2023-03-06T12:32:47.510Z,48.83
2023-03-06T12:34:19.274Z,48.55
2023-03-06T12:36:04.080Z,49.32
2023-03-06T12:37:35.723Z,50.20
2023-03-06T12:39:16.943Z,49.38
2023-03-06T12:41:06.664Z,48.83
2023-03-06T12:43:00.970Z,49.38
2023-03-06T12:44:50.524Z,48.63
2023-03-06T12:46:25.309Z,48.80
2023-03-06T12:47:58.200Z,48.63
2023-03-06T12:49:33.319Z,48.03
2023-03-06T12:51:08.252Z,48.87
2023-03-06T12:52:41.059Z,49.10
2023-03-06T12:54:14.645Z,49.14
2023-03-06T12:55:48.782Z,48.23
2023-03-06T12:57:24.156Z,48.92
2023-03-06T12:58:57.627Z,49.25
2023-03-06T13:00:35.081Z,48.52
2023-03-06T13:02:25.169Z,47.56
2023-03-06T13:04:05.578Z,47.60
2023-03-06T13:06:04.160Z,46.94
2023-03-06T13:07:57.538Z,47.04
2023-03-06T13:09:29.140Z,47.25
2023-03-06T13:11:26.874Z,47.25
2023-03-06T13:13:01.265Z,47.49
2023-03-06T13:14:34.134Z,47.48
2023-03-06T13:16:32.882Z,47.61
2023-03-06T13:18:22.799Z,47.20
2023-03-06T13:20:13.312Z,47.33
2023-03-06T13:22:00.775Z,48.27
2023-03-06T13:23:32.418Z,47.64
2023-03-06T13:25:30.469Z,48.20
2023-03-06T13:27:04.569Z,47.86
2023-03-06T13:28:48.717Z,48.50
2023-03-06T13:30:23.368Z,48.17
2023-03-06T13:31:55.086Z,47.75
2023-03-06T13:33:26.799Z,48.38
2023-03-06T13:34:58.584Z,49.02
2023-03-06T13:36:31.133Z,48.66
2023-03-06T13:38:03.251Z,49.00
2023-03-06T13:39:55.825Z,49.20
2023-03-06T13:41:31.151Z,48.63
2023-03-06T13:43:09.331Z,49.15
2023-03-06T13:44:42.972Z,49.01
2023-03-06T13:46:27.044Z,49.20
2023-03-06T13:48:29.991Z,49.07
2023-03-06T13:49:52.390Z,49.28
2023-03-06T13:51:28.507Z,49.89
2023-03-06T13:53:00.256Z,49.29
2023-03-06T13:54:32.153Z,49.38
2023-03-06T13:56:28.282Z,50.51
2023-03-06T13:58:08.772Z,50.01
2023-03-06T14:00:11.925Z,50.28
2023-03-06T14:01:56.591Z,49.62
2023-03-06T14:03:33.968Z,50.59
2023-03-06T14:05:17.063Z,49.96
2023-03-06T14:06:52.485Z,50.48
2023-03-06T14:08:28.631Z,50.24
2023-03-06T14:10:03.205Z,50.68
2023-03-06T14:11:36.499Z,50.67
2023-03-06T14:13:14.995Z,50.49
2023-03-06T14:14:59.480Z,50.11
2023-03-06T14:16:49.495Z,49.44
2023-03-06T14:18:26.821Z,48.89
2023-03-06T14:20:05.600Z,49.08
2023-03-06T14:21:45.539Z,49.08
2023-03-06T14:23:25.965Z,49.94
2023-03-06T14:25:03.861Z,50.61
2023-03-06T14:26:46.394Z,50.65
2023-03-06T14:28:27.281Z,50.55
2023-03-06T14:30:11.884Z,49.74
2023-03-06T14:31:43.595Z,50.28
2023-03-06T14:33:27.398Z,51.02
2023-03-06T14:34:59.158Z,50.40
2023-03-06T14:36:44.485Z,51.19
2023-03-06T14:38:16.255Z,51.00
2023-03-06T14:39:48.333Z,50.90
2023-03-06T14:41:32.474Z,51.48
2023-03-06T14:43:20.338Z,51.44
2023-03-06T14:45:16.743Z,52.00
2023-03-06T14:46:49.828Z,51.52
2023-03-06T14:48:25.260Z,51.01
2023-03-06T14:50:26.015Z,51.82
2023-03-06T14:52:02.034Z,51.84
2023-03-06T14:53:34.907Z,51.31
2023-03-06T14:55:20.354Z,50.84
2023-03-06T14:56:56.573Z,51.35
2023-03-06T14:58:56.300Z,51.34
2023-03-06T15:00:36.053Z,51.84
2023-03-06T15:02:11.516Z,50.89
2023-03-06T15:03:50.529Z,51.12
2023-03-06T15:05:24.932Z,51.28
2023-03-06T15:06:58.280Z,52.07
2023-03-06T15:08:33.128Z,52.27
2023-03-06T15:10:17.964Z,52.42
2023-03-06T15:11:55.954Z,53.24
2023-03-06T15:13:29.786Z,52.75
2023-03-06T15:15:24.860Z,52.83
2023-03-06T15:16:56.697Z,53.53
2023-03-06T15:18:30.374Z,53.90
2023-03-06T15:20:02.318Z,54.01
2023-03-06T15:21:38.761Z,54.17
2023-03-06T15:23:34.205Z,53.84
2023-03-06T15:25:26.944Z,53.91
2023-03-06T15:27:02.606Z,53.97
2023-03-06T15:28:38.608Z,53.98
2023-03-06T15:30:30.621Z,54.81
2023-03-06T15:32:29.630Z,55.29
2023-03-06T15:34:07.860Z,56.07
2023-03-06T15:35:39.763Z,56.01
2023-03-06T15:37:27.678Z,56.18
2023-03-06T15:39:00.909Z,56.67
2023-03-06T15:40:33.015Z,56.75
2023-03-06T15:42:20.450Z,57.42
2023-03-06T15:43:52.278Z,57.46
2023-03-06T15:45:25.819Z,58.50
2023-03-06T15:47:08.522Z,59.08
2023-03-06T15:48:51.576Z,59.03
2023-03-06T15:50:29.066Z,59.25
2023-03-06T15:52:00.869Z,59.22
2023-03-06T15:53:32.744Z,59.81
2023-03-06T15:55:04.658Z,59.22
2023-03-06T15:56:40.166Z,59.32
2023-03-06T15:58:17.265Z,59.05
2023-03-06T15:59:49.507Z,60.45
2023-03-06T16:01:21.349Z,59.92
2023-03-06T16:02:53.520Z,60.34
2023-03-06T16:04:25.178Z,60.41
2023-03-06T16:05:57.073Z,60.26
2023-03-06T16:07:28.769Z,60.83
2023-03-06T16:09:00.362Z,60.79
2023-03-06T16:10:35.419Z,61.23
2023-03-06T16:12:15.209Z,61.74
2023-03-06T16:13:46.958Z,61.71
2023-03-06T16:15:25.684Z,62.38
2023-03-06T16:16:57.892Z,61.85
2023-03-06T16:18:31.552Z,61.25
2023-03-06T16:20:03.426Z,61.68
2023-03-06T16:21:35.266Z,62.15
2023-03-06T16:23:10.482Z,62.07
2023-03-06T16:24:43.366Z,62.38
2023-03-06T16:26:22.409Z,62.62
2023-03-06T16:27:59.667Z,62.75
2023-03-06T16:29:31.551Z,63.33
2023-03-06T16:31:03.506Z,63.58
2023-03-06T16:32:35.824Z,63.10
2023-03-06T16:34:07.601Z,62.84
2023-03-06T16:35:41.309Z,63.32
2023-03-06T16:37:14.045Z,63.10
2023-03-06T16:38:46.060Z,62.72
2023-03-06T16:40:22.686Z,62.71
2023-03-06T16:41:55.656Z,62.58
2023-03-06T16:43:27.370Z,62.66
2023-03-06T16:44:59.512Z,62.91
2023-03-06T16:46:31.457Z,62.60
2023-03-06T16:48:15.567Z,62.49
2023-03-06T16:49:47.389Z,62.00
2023-03-06T16:51:22.416Z,61.59
2023-03-06T16:52:55.989Z,61.50
2023-03-06T16:54:28.523Z,61.53
2023-03-06T16:56:00.429Z,62.61
2023-03-06T16:57:35.725Z,62.35
2023-03-06T16:59:07.694Z,61.85
2023-03-06T17:00:40.124Z,62.39
2023-03-06T17:02:15.160Z,62.12
2023-03-06T17:03:47.161Z,62.25
2023-03-06T17:05:19.954Z,62.37
2023-03-06T17:06:52.904Z,62.39
2023-03-06T17:08:24.683Z,62.31
2023-03-06T17:09:56.488Z,61.85
2023-03-06T17:11:28.286Z,62.59
2023-03-06T17:13:00.141Z,63.34
2023-03-06T17:14:33.620Z,63.08
2023-03-06T17:16:05.995Z,63.07
2023-03-06T17:17:38.384Z,63.18
2023-03-06T17:19:15.981Z,63.56
2023-03-06T17:20:51.897Z,63.55
2023-03-06T17:22:23.604Z,63.69
2023-03-06T17:23:56.304Z,63.95
2023-03-06T17:25:27.991Z,63.65
2023-03-06T17:26:59.784Z,63.93
2023-03-06T17:28:31.576Z,63.87
2023-03-06T17:30:04.798Z,63.23
2023-03-06T17:31:36.642Z,63.25
2023-03-06T17:33:08.377Z,63.15
2023-03-06T17:34:40.970Z,63.58
2023-03-06T17:36:14.748Z,63.99
2023-03-06T17:37:46.415Z,63.99
2023-03-06T17:39:19.794Z,64.56
2023-03-06T17:40:51.662Z,64.31
2023-03-06T17:42:23.535Z,63.14
2023-03-06T17:43:56.220Z,63.64
2023-03-06T17:45:29.571Z,63.93
2023-03-06T17:47:02.173Z,64.17
2023-03-06T17:48:34.905Z,63.95
2023-03-06T17:50:06.856Z,64.46
2023-03-06T17:51:39.077Z,64.82
2023-03-06T17:53:10.858Z,64.70
2023-03-06T17:54:42.725Z,64.84
2023-03-06T17:56:14.843Z,64.75
2023-03-06T17:57:46.760Z,64.65
2023-03-06T17:59:18.903Z,65.25
2023-03-06T18:00:50.691Z,65.52
2023-03-06T18:02:22.705Z,65.34
2023-03-06T18:03:54.529Z,65.61
2023-03-06T18:05:26.421Z,65.06
2023-03-06T18:06:58.344Z,64.88
2023-03-06T18:08:30.635Z,65.87
2023-03-06T18:10:02.473Z,64.81
2023-03-06T18:11:34.284Z,64.45
2023-03-06T18:13:06.462Z,64.37
2023-03-06T18:14:38.209Z,65.24
2023-03-06T18:16:12.566Z,64.85
2023-03-06T18:17:45.072Z,64.80
2023-03-06T18:19:17.755Z,65.37
2023-03-06T18:20:49.932Z,65.50
2023-03-06T18:22:21.783Z,65.47
2023-03-06T18:23:53.779Z,65.59
2023-03-06T18:25:25.484Z,66.02
2023-03-06T18:26:57.244Z,66.06
2023-03-06T18:28:30.845Z,66.24
2023-03-06T18:30:02.893Z,65.86
2023-03-06T18:31:37.457Z,66.56
2023-03-06T18:33:10.336Z,66.72
2023-03-06T18:34:42.134Z,66.22
2023-03-06T18:36:14.313Z,65.84
2023-03-06T18:37:46.056Z,66.79
2023-03-06T18:39:18.016Z,65.96
2023-03-06T18:40:49.727Z,66.67
2023-03-06T18:42:21.521Z,67.16
2023-03-06T18:43:55.493Z,67.06
2023-03-06T18:45:27.308Z,67.43
2023-03-06T18:46:59.288Z,68.04
2023-03-06T18:48:31.104Z,68.12
2023-03-06T18:50:03.249Z,67.97
2023-03-06T18:51:35.323Z,68.52
2023-03-06T18:53:07.172Z,67.92
2023-03-06T18:54:39.043Z,68.40
2023-03-06T18:56:16.973Z,68.23
2023-03-06T18:57:48.730Z,68.44
2023-03-06T18:59:21.131Z,68.84
2023-03-06T19:00:52.964Z,67.94
2023-03-06T19:02:24.813Z,68.40
2023-03-06T19:03:58.739Z,68.03
2023-03-06T19:05:30.452Z,68.03
2023-03-06T19:07:02.298Z,67.87
2023-03-06T19:08:35.856Z,67.33
2023-03-06T19:10:08.052Z,67.18
2023-03-06T19:11:40.493Z,68.22
2023-03-06T19:13:13.314Z,68.52
2023-03-06T19:14:45.012Z,68.54
2023-03-06T19:16:23.011Z,68.06
2023-03-06T19:17:54.926Z,67.61
2023-03-06T19:19:28.885Z,68.73
2023-03-06T19:21:11.597Z,68.49
2023-03-06T19:22:43.616Z,67.81
2023-03-06T19:24:15.487Z,68.07
2023-03-06T19:26:00.586Z,69.07
2023-03-06T19:27:32.691Z,69.25
2023-03-06T19:29:04.393Z,69.00
2023-03-06T19:30:40.220Z,68.58
2023-03-06T19:32:12.099Z,68.20
2023-03-06T19:33:44.377Z,68.40
2023-03-06T19:35:16.039Z,68.48
2023-03-06T19:36:50.399Z,67.85
2023-03-06T19:38:22.177Z,68.03
2023-03-06T19:39:53.876Z,69.53
2023-03-06T19:41:26.678Z,70.06
2023-03-06T19:42:58.401Z,69.60
2023-03-06T19:44:33.195Z,69.70
2023-03-06T19:46:05.214Z,70.88
2023-03-06T19:47:36.931Z,70.05
2023-03-06T19:49:12.162Z,69.17
2023-03-06T19:50:44.082Z,69.68
2023-03-06T19:52:16.933Z,69.19
2023-03-06T19:53:48.611Z,70.21
2023-03-06T19:55:20.715Z,70.63
2023-03-06T19:56:53.485Z,70.38
2023-03-06T19:58:25.194Z,70.29
2023-03-06T19:59:58.620Z,70.28
2023-03-06T20:01:30.776Z,69.91
2023-03-06T20:03:02.649Z,70.17
2023-03-06T20:04:35.260Z,70.43
2023-03-06T20:06:12.098Z,70.50
2023-03-06T20:07:44.008Z,70.50
2023-03-06T20:09:15.799Z,70.42
2023-03-06T20:10:47.593Z,69.77
2023-03-06T20:12:19.395Z,69.91
2023-03-06T20:13:51.627Z,69.26
2023-03-06T20:15:23.603Z,69.07
2023-03-06T20:16:55.339Z,68.47
2023-03-06T20:18:27.170Z,68.41
2023-03-06T20:19:58.931Z,69.04
2023-03-06T20:21:35.467Z,68.75
2023-03-06T20:23:07.280Z,68.44
2023-03-06T20:24:39.220Z,68.51
2023-03-06T20:26:14.453Z,68.89
2023-03-06T20:27:46.405Z,68.99
2023-03-06T20:29:18.162Z,69.02